sensor_id;sensor_type;location;lat;lon;timestamp;temperature;humidity
19692;DHT22;42748;50.016;19.890;2022-11-22T00:00:25;3.60;99.90
19692;DHT22;42748;50.016;19.890;2022-11-22T00:02:54;3.30;99.90
19692;DHT22;42748;50.016;19.890;2022-11-22T00:05:21;3.00;99.90
19692;DHT22;42748;50.016;19.890;2022-11-22T00:07:48;2.80;99.90
19692;DHT22;42748;50.016;19.890;2022-11-22T00:10:15;2.60;99.90
19692;DHT22;42748;50.016;19.890;2022-11-22T00:12:43;2.50;99.90
19692;DHT22;42748;50.016;19.890;2022-11-22T00:15:11;2.50;99.90
19692;DHT22;42748;50.016;19.890;2022-11-22T00:17:38;2.50;99.90
19692;DHT22;42748;50.016;19.890;2022-11-22T00:20:07;2.50;99.90
19692;DHT22;42748;50.016;19.890;2022-11-22T00:22:36;2.50;99.90
19692;DHT22;42748;50.016;19.890;2022-11-22T00:25:10;2.60;99.90
19692;DHT22;42748;50.016;19.890;2022-11-22T00:27:37;2.70;99.90
19692;DHT22;42748;50.016;19.890;2022-11-22T00:30:04;2.70;99.90
19692;DHT22;42748;50.016;19.890;2022-11-22T00:32:32;2.70;99.90
19692;DHT22;42748;50.016;19.890;2022-11-22T00:34:59;2.70;99.90
19692;DHT22;42748;50.016;19.890;2022-11-22T00:37:26;2.80;99.90
19692;DHT22;42748;50.016;19.890;2022-11-22T00:39:53;2.80;99.90
19692;DHT22;42748;50.016;19.890;2022-11-22T00:42:20;2.90;99.90
19692;DHT22;42748;50.016;19.890;2022-11-22T00:44:47;2.90;99.90
19692;DHT22;42748;50.016;19.890;2022-11-22T00:47:14;2.90;99.90
19692;DHT22;42748;50.016;19.890;2022-11-22T00:49:41;2.90;99.90
19692;DHT22;42748;50.016;19.890;2022-11-22T00:52:08;2.90;99.90
19692;DHT22;42748;50.016;19.890;2022-11-22T00:54:34;2.90;99.90
19692;DHT22;42748;50.016;19.890;2022-11-22T00:57:01;2.80;99.90
19692;DHT22;42748;50.016;19.890;2022-11-22T00:59:28;2.70;99.90
19692;DHT22;42748;50.016;19.890;2022-11-22T01:01:56;2.60;99.90
19692;DHT22;42748;50.016;19.890;2022-11-22T01:04:23;2.50;99.90
19692;DHT22;42748;50.016;19.890;2022-11-22T01:06:50;2.40;99.90
19692;DHT22;42748;50.016;19.890;2022-11-22T01:09:20;2.40;99.90
19692;DHT22;42748;50.016;19.890;2022-11-22T01:11:47;2.30;99.90
19692;DHT22;42748;50.016;19.890;2022-11-22T01:14:15;2.30;99.90
19692;DHT22;42748;50.016;19.890;2022-11-22T01:16:43;2.20;99.90
19692;DHT22;42748;50.016;19.890;2022-11-22T01:19:10;2.20;99.90
19692;DHT22;42748;50.016;19.890;2022-11-22T01:21:37;2.10;99.90
19692;DHT22;42748;50.016;19.890;2022-11-22T01:24:04;2.00;99.90
19692;DHT22;42748;50.016;19.890;2022-11-22T01:26:32;1.90;99.90
19692;DHT22;42748;50.016;19.890;2022-11-22T01:29:01;1.80;99.90
19692;DHT22;42748;50.016;19.890;2022-11-22T01:31:28;1.80;99.90
19692;DHT22;42748;50.016;19.890;2022-11-22T01:33:56;1.70;99.90
19692;DHT22;42748;50.016;19.890;2022-11-22T01:36:25;1.70;99.90
19692;DHT22;42748;50.016;19.890;2022-11-22T01:38:53;1.90;99.90
19692;DHT22;42748;50.016;19.890;2022-11-22T01:41:20;1.90;99.90
19692;DHT22;42748;50.016;19.890;2022-11-22T01:43:47;1.90;99.90
19692;DHT22;42748;50.016;19.890;2022-11-22T01:46:36;1.90;99.90
19692;DHT22;42748;50.016;19.890;2022-11-22T01:51:39;1.90;99.90
19692;DHT22;42748;50.016;19.890;2022-11-22T01:54:08;1.90;99.90
19692;DHT22;42748;50.016;19.890;2022-11-22T01:56:38;1.90;99.90
19692;DHT22;42748;50.016;19.890;2022-11-22T01:59:11;1.80;99.90
19692;DHT22;42748;50.016;19.890;2022-11-22T02:01:40;1.90;99.90
19692;DHT22;42748;50.016;19.890;2022-11-22T02:04:09;1.80;99.90
19692;DHT22;42748;50.016;19.890;2022-11-22T02:07:13;1.80;99.90
19692;DHT22;42748;50.016;19.890;2022-11-22T02:09:39;1.70;99.90
19692;DHT22;42748;50.016;19.890;2022-11-22T02:12:07;1.70;99.90
19692;DHT22;42748;50.016;19.890;2022-11-22T02:14:37;1.60;99.90
19692;DHT22;42748;50.016;19.890;2022-11-22T02:17:05;1.50;99.90
19692;DHT22;42748;50.016;19.890;2022-11-22T02:19:43;1.40;99.90
19692;DHT22;42748;50.016;19.890;2022-11-22T02:22:32;1.30;99.90
19692;DHT22;42748;50.016;19.890;2022-11-22T02:27:44;1.30;99.90
19692;DHT22;42748;50.016;19.890;2022-11-22T02:30:12;1.30;99.90
19692;DHT22;42748;50.016;19.890;2022-11-22T02:32:39;1.30;99.90
19692;DHT22;42748;50.016;19.890;2022-11-22T02:35:26;1.30;99.90
19692;DHT22;42748;50.016;19.890;2022-11-22T02:37:57;1.30;99.90
19692;DHT22;42748;50.016;19.890;2022-11-22T02:40:27;1.20;99.90
19692;DHT22;42748;50.016;19.890;2022-11-22T02:43:02;1.20;99.90
19692;DHT22;42748;50.016;19.890;2022-11-22T02:45:30;1.10;99.90
19692;DHT22;42748;50.016;19.890;2022-11-22T02:48:08;1.00;99.90
19692;DHT22;42748;50.016;19.890;2022-11-22T02:50:35;1.00;99.90
19692;DHT22;42748;50.016;19.890;2022-11-22T02:53:03;1.00;99.90
19692;DHT22;42748;50.016;19.890;2022-11-22T02:55:30;1.00;99.90
19692;DHT22;42748;50.016;19.890;2022-11-22T02:57:58;0.90;99.90
19692;DHT22;42748;50.016;19.890;2022-11-22T03:00:25;0.90;99.90
19692;DHT22;42748;50.016;19.890;2022-11-22T03:02:52;0.80;99.90
19692;DHT22;42748;50.016;19.890;2022-11-22T03:05:19;0.80;99.90
19692;DHT22;42748;50.016;19.890;2022-11-22T03:07:45;0.70;99.90
19692;DHT22;42748;50.016;19.890;2022-11-22T03:10:13;0.70;99.90
19692;DHT22;42748;50.016;19.890;2022-11-22T03:12:40;0.60;99.90
19692;DHT22;42748;50.016;19.890;2022-11-22T03:15:07;0.60;99.90
19692;DHT22;42748;50.016;19.890;2022-11-22T03:17:34;0.50;99.90
19692;DHT22;42748;50.016;19.890;2022-11-22T03:20:01;0.40;99.90
19692;DHT22;42748;50.016;19.890;2022-11-22T03:22:28;0.40;99.90
19692;DHT22;42748;50.016;19.890;2022-11-22T03:24:55;0.40;99.90
19692;DHT22;42748;50.016;19.890;2022-11-22T03:27:22;0.40;99.90
19692;DHT22;42748;50.016;19.890;2022-11-22T03:29:49;0.40;99.90
19692;DHT22;42748;50.016;19.890;2022-11-22T03:32:16;0.30;99.90
19692;DHT22;42748;50.016;19.890;2022-11-22T03:34:43;0.30;99.90
19692;DHT22;42748;50.016;19.890;2022-11-22T03:37:10;0.30;99.90
19692;DHT22;42748;50.016;19.890;2022-11-22T03:39:37;0.30;99.90
19692;DHT22;42748;50.016;19.890;2022-11-22T03:42:04;0.20;99.90
19692;DHT22;42748;50.016;19.890;2022-11-22T03:44:31;0.20;99.90
19692;DHT22;42748;50.016;19.890;2022-11-22T03:46:57;0.10;99.90
19692;DHT22;42748;50.016;19.890;2022-11-22T03:49:24;0.10;99.90
19692;DHT22;42748;50.016;19.890;2022-11-22T03:51:51;0.10;99.90
19692;DHT22;42748;50.016;19.890;2022-11-22T03:54:18;0.10;99.90
19692;DHT22;42748;50.016;19.890;2022-11-22T03:56:45;0.10;99.90
19692;DHT22;42748;50.016;19.890;2022-11-22T03:59:12;0.10;99.90
19692;DHT22;42748;50.016;19.890;2022-11-22T04:01:39;0.10;99.90
19692;DHT22;42748;50.016;19.890;2022-11-22T04:04:06;0.10;99.90
19692;DHT22;42748;50.016;19.890;2022-11-22T04:06:33;0.10;99.90
19692;DHT22;42748;50.016;19.890;2022-11-22T04:09:00;0.10;99.90
19692;DHT22;42748;50.016;19.890;2022-11-22T04:11:28;0.10;99.90
19692;DHT22;42748;50.016;19.890;2022-11-22T04:13:55;0.00;99.90
19692;DHT22;42748;50.016;19.890;2022-11-22T04:16:41;0.00;99.90
19692;DHT22;42748;50.016;19.890;2022-11-22T04:19:07;0.00;99.90
19692;DHT22;42748;50.016;19.890;2022-11-22T04:21:34;-0.10;99.90
19692;DHT22;42748;50.016;19.890;2022-11-22T04:24:09;-0.10;99.90
19692;DHT22;42748;50.016;19.890;2022-11-22T04:26:56;-0.10;99.90
19692;DHT22;42748;50.016;19.890;2022-11-22T04:29:23;-0.10;99.90
19692;DHT22;42748;50.016;19.890;2022-11-22T04:31:51;-0.10;99.90
19692;DHT22;42748;50.016;19.890;2022-11-22T04:34:37;-0.10;99.90
19692;DHT22;42748;50.016;19.890;2022-11-22T04:37:04;-0.10;99.90
19692;DHT22;42748;50.016;19.890;2022-11-22T04:39:31;-0.20;99.90
19692;DHT22;42748;50.016;19.890;2022-11-22T04:41:59;-0.20;99.90
19692;DHT22;42748;50.016;19.890;2022-11-22T04:44:45;-0.10;99.90
19692;DHT22;42748;50.016;19.890;2022-11-22T04:47:17;-0.20;99.90
19692;DHT22;42748;50.016;19.890;2022-11-22T04:50:04;-0.20;99.90
19692;DHT22;42748;50.016;19.890;2022-11-22T04:52:53;-0.20;99.90
19692;DHT22;42748;50.016;19.890;2022-11-22T04:55:20;-0.20;99.90
19692;DHT22;42748;50.016;19.890;2022-11-22T04:57:47;-0.20;99.90
19692;DHT22;42748;50.016;19.890;2022-11-22T05:00:17;-0.20;99.90
19692;DHT22;42748;50.016;19.890;2022-11-22T05:02:44;-0.30;99.90
19692;DHT22;42748;50.016;19.890;2022-11-22T05:05:11;-0.30;99.90
19692;DHT22;42748;50.016;19.890;2022-11-22T05:07:38;-0.30;99.90
19692;DHT22;42748;50.016;19.890;2022-11-22T05:10:06;-0.30;99.90
19692;DHT22;42748;50.016;19.890;2022-11-22T05:12:33;-0.40;99.90
19692;DHT22;42748;50.016;19.890;2022-11-22T05:15:00;-0.40;99.90
19692;DHT22;42748;50.016;19.890;2022-11-22T05:17:27;-0.40;99.90
19692;DHT22;42748;50.016;19.890;2022-11-22T05:19:54;-0.40;99.90
19692;DHT22;42748;50.016;19.890;2022-11-22T05:22:21;-0.40;99.90
19692;DHT22;42748;50.016;19.890;2022-11-22T05:25:08;-0.40;99.90
19692;DHT22;42748;50.016;19.890;2022-11-22T05:27:35;-0.50;99.90
19692;DHT22;42748;50.016;19.890;2022-11-22T05:30:04;-0.50;99.90
19692;DHT22;42748;50.016;19.890;2022-11-22T05:32:32;-0.50;99.90
19692;DHT22;42748;50.016;19.890;2022-11-22T05:34:59;-0.40;99.90
19692;DHT22;42748;50.016;19.890;2022-11-22T05:37:26;-0.40;99.90
19692;DHT22;42748;50.016;19.890;2022-11-22T05:39:53;-0.40;99.90
19692;DHT22;42748;50.016;19.890;2022-11-22T05:42:20;-0.40;99.90
19692;DHT22;42748;50.016;19.890;2022-11-22T05:44:47;-0.40;99.90
19692;DHT22;42748;50.016;19.890;2022-11-22T05:47:14;-0.40;99.90
19692;DHT22;42748;50.016;19.890;2022-11-22T05:49:41;-0.50;99.90
19692;DHT22;42748;50.016;19.890;2022-11-22T05:52:11;-0.40;99.90
19692;DHT22;42748;50.016;19.890;2022-11-22T05:54:38;-0.40;99.90
19692;DHT22;42748;50.016;19.890;2022-11-22T05:57:05;-0.50;99.90
19692;DHT22;42748;50.016;19.890;2022-11-22T05:59:32;-0.50;99.90
19692;DHT22;42748;50.016;19.890;2022-11-22T06:01:59;-0.50;99.90
19692;DHT22;42748;50.016;19.890;2022-11-22T06:04:27;-0.50;99.90
19692;DHT22;42748;50.016;19.890;2022-11-22T06:06:54;-0.50;99.90
19692;DHT22;42748;50.016;19.890;2022-11-22T06:09:21;-0.60;99.90
19692;DHT22;42748;50.016;19.890;2022-11-22T06:11:48;-0.50;99.90
19692;DHT22;42748;50.016;19.890;2022-11-22T06:14:15;-0.50;99.90
19692;DHT22;42748;50.016;19.890;2022-11-22T06:16:42;-0.50;99.90
19692;DHT22;42748;50.016;19.890;2022-11-22T06:19:09;-0.50;99.90
19692;DHT22;42748;50.016;19.890;2022-11-22T06:21:36;-0.50;99.90
19692;DHT22;42748;50.016;19.890;2022-11-22T06:24:03;-0.50;99.90
19692;DHT22;42748;50.016;19.890;2022-11-22T06:26:31;-0.50;99.90
19692;DHT22;42748;50.016;19.890;2022-11-22T06:29:05;-0.40;99.90
19692;DHT22;42748;50.016;19.890;2022-11-22T06:31:32;-0.40;99.90
19692;DHT22;42748;50.016;19.890;2022-11-22T06:33:59;-0.40;99.90
19692;DHT22;42748;50.016;19.890;2022-11-22T06:36:28;-0.40;99.90
19692;DHT22;42748;50.016;19.890;2022-11-22T06:38:56;-0.30;99.90
19692;DHT22;42748;50.016;19.890;2022-11-22T06:41:31;-0.30;99.90
19692;DHT22;42748;50.016;19.890;2022-11-22T06:43:58;-0.30;99.90
19692;DHT22;42748;50.016;19.890;2022-11-22T06:46:26;-0.30;99.90
19692;DHT22;42748;50.016;19.890;2022-11-22T06:48:53;-0.30;99.90
19692;DHT22;42748;50.016;19.890;2022-11-22T06:51:28;-0.40;99.90
19692;DHT22;42748;50.016;19.890;2022-11-22T06:53:56;-0.30;99.90
19692;DHT22;42748;50.016;19.890;2022-11-22T06:56:37;-0.30;99.90
19692;DHT22;42748;50.016;19.890;2022-11-22T06:59:05;-0.30;99.90
19692;DHT22;42748;50.016;19.890;2022-11-22T07:01:34;-0.20;99.90
19692;DHT22;42748;50.016;19.890;2022-11-22T07:04:02;-0.20;99.90
19692;DHT22;42748;50.016;19.890;2022-11-22T07:06:34;-0.10;99.90
19692;DHT22;42748;50.016;19.890;2022-11-22T07:09:05;-0.10;99.90
19692;DHT22;42748;50.016;19.890;2022-11-22T07:11:33;-0.10;99.90
19692;DHT22;42748;50.016;19.890;2022-11-22T07:14:03;-0.10;99.90
19692;DHT22;42748;50.016;19.890;2022-11-22T07:16:35;-0.10;99.90
19692;DHT22;42748;50.016;19.890;2022-11-22T07:19:02;-0.10;99.90
19692;DHT22;42748;50.016;19.890;2022-11-22T07:21:29;0.00;99.90
19692;DHT22;42748;50.016;19.890;2022-11-22T07:23:56;0.00;99.90
19692;DHT22;42748;50.016;19.890;2022-11-22T07:26:24;0.10;99.90
19692;DHT22;42748;50.016;19.890;2022-11-22T07:28:51;0.20;99.90
19692;DHT22;42748;50.016;19.890;2022-11-22T07:31:19;0.30;99.90
19692;DHT22;42748;50.016;19.890;2022-11-22T07:33:46;0.40;99.90
19692;DHT22;42748;50.016;19.890;2022-11-22T07:36:16;0.40;99.90
19692;DHT22;42748;50.016;19.890;2022-11-22T07:38:44;0.40;99.90
19692;DHT22;42748;50.016;19.890;2022-11-22T07:41:12;0.50;99.90
19692;DHT22;42748;50.016;19.890;2022-11-22T07:43:39;0.40;99.90
19692;DHT22;42748;50.016;19.890;2022-11-22T07:46:14;0.40;99.90
19692;DHT22;42748;50.016;19.890;2022-11-22T07:48:44;0.50;99.90
19692;DHT22;42748;50.016;19.890;2022-11-22T07:51:11;0.60;99.90
19692;DHT22;42748;50.016;19.890;2022-11-22T07:53:38;0.70;99.90
19692;DHT22;42748;50.016;19.890;2022-11-22T07:56:05;0.80;99.90
19692;DHT22;42748;50.016;19.890;2022-11-22T07:58:33;0.90;99.90
19692;DHT22;42748;50.016;19.890;2022-11-22T08:01:12;1.00;99.90
19692;DHT22;42748;50.016;19.890;2022-11-22T08:03:40;1.00;99.90
19692;DHT22;42748;50.016;19.890;2022-11-22T08:06:08;1.00;99.90
19692;DHT22;42748;50.016;19.890;2022-11-22T08:08:36;1.10;99.90
19692;DHT22;42748;50.016;19.890;2022-11-22T08:11:05;1.20;99.90
19692;DHT22;42748;50.016;19.890;2022-11-22T08:14:13;1.20;99.90
19692;DHT22;42748;50.016;19.890;2022-11-22T08:16:40;1.20;99.90
19692;DHT22;42748;50.016;19.890;2022-11-22T08:19:07;1.40;99.90
19692;DHT22;42748;50.016;19.890;2022-11-22T08:21:35;1.60;99.90
19692;DHT22;42748;50.016;19.890;2022-11-22T08:24:02;1.60;99.90
19692;DHT22;42748;50.016;19.890;2022-11-22T08:26:29;1.70;99.90
19692;DHT22;42748;50.016;19.890;2022-11-22T08:28:56;1.80;99.90
19692;DHT22;42748;50.016;19.890;2022-11-22T08:31:25;2.00;99.90
19692;DHT22;42748;50.016;19.890;2022-11-22T08:33:52;2.30;99.90
19692;DHT22;42748;50.016;19.890;2022-11-22T08:36:20;2.50;99.90
19692;DHT22;42748;50.016;19.890;2022-11-22T08:38:47;2.40;99.90
19692;DHT22;42748;50.016;19.890;2022-11-22T08:41:14;2.60;99.90
19692;DHT22;42748;50.016;19.890;2022-11-22T08:43:41;2.70;99.90
19692;DHT22;42748;50.016;19.890;2022-11-22T08:46:08;2.80;99.90
19692;DHT22;42748;50.016;19.890;2022-11-22T08:48:36;2.90;99.90
19692;DHT22;42748;50.016;19.890;2022-11-22T08:51:08;3.10;99.90
19692;DHT22;42748;50.016;19.890;2022-11-22T08:53:37;3.30;99.90
19692;DHT22;42748;50.016;19.890;2022-11-22T08:56:06;3.40;99.90
19692;DHT22;42748;50.016;19.890;2022-11-22T08:58:35;3.60;99.90
19692;DHT22;42748;50.016;19.890;2022-11-22T09:01:10;3.90;99.90
19692;DHT22;42748;50.016;19.890;2022-11-22T09:03:39;3.90;99.90
19692;DHT22;42748;50.016;19.890;2022-11-22T09:06:08;4.20;99.90
19692;DHT22;42748;50.016;19.890;2022-11-22T09:08:55;4.40;99.90
19692;DHT22;42748;50.016;19.890;2022-11-22T09:11:42;4.70;99.90
19692;DHT22;42748;50.016;19.890;2022-11-22T09:14:09;5.10;99.90
19692;DHT22;42748;50.016;19.890;2022-11-22T09:16:36;5.20;99.90
19692;DHT22;42748;50.016;19.890;2022-11-22T09:19:03;5.60;99.90
19692;DHT22;42748;50.016;19.890;2022-11-22T09:21:30;6.00;99.90
19692;DHT22;42748;50.016;19.890;2022-11-22T09:23:57;6.20;99.90
19692;DHT22;42748;50.016;19.890;2022-11-22T09:26:24;6.80;99.90
19692;DHT22;42748;50.016;19.890;2022-11-22T09:28:51;6.70;99.90
19692;DHT22;42748;50.016;19.890;2022-11-22T09:31:22;6.80;99.90
19692;DHT22;42748;50.016;19.890;2022-11-22T09:33:49;6.40;99.90
19692;DHT22;42748;50.016;19.890;2022-11-22T09:36:19;6.00;99.90
19692;DHT22;42748;50.016;19.890;2022-11-22T09:38:47;6.10;99.90
19692;DHT22;42748;50.016;19.890;2022-11-22T09:41:23;6.40;99.90
19692;DHT22;42748;50.016;19.890;2022-11-22T09:55:13;6.60;99.90
19692;DHT22;42748;50.016;19.890;2022-11-22T09:58:08;6.60;99.90
19692;DHT22;42748;50.016;19.890;2022-11-22T10:00:36;6.60;99.90
19692;DHT22;42748;50.016;19.890;2022-11-22T10:03:19;6.60;99.90
19692;DHT22;42748;50.016;19.890;2022-11-22T10:05:53;6.40;99.90
19692;DHT22;42748;50.016;19.890;2022-11-22T10:11:15;6.60;99.90
19692;DHT22;42748;50.016;19.890;2022-11-22T10:13:56;6.80;99.90
19692;DHT22;42748;50.016;19.890;2022-11-22T10:19:36;7.40;99.90
19692;DHT22;42748;50.016;19.890;2022-11-22T10:22:12;7.10;99.90
19692;DHT22;42748;50.016;19.890;2022-11-22T10:24:41;7.30;99.90
19692;DHT22;42748;50.016;19.890;2022-11-22T10:27:13;7.10;99.90
19692;DHT22;42748;50.016;19.890;2022-11-22T10:29:57;7.20;99.90
19692;DHT22;42748;50.016;19.890;2022-11-22T10:32:37;7.10;99.90
19692;DHT22;42748;50.016;19.890;2022-11-22T10:49:06;7.80;99.90
19692;DHT22;42748;50.016;19.890;2022-11-22T10:57:12;7.90;99.90
19692;DHT22;42748;50.016;19.890;2022-11-22T11:00:04;7.60;99.90
19692;DHT22;42748;50.016;19.890;2022-11-22T11:05:29;7.50;99.90
19692;DHT22;42748;50.016;19.890;2022-11-22T11:07:59;7.50;99.90
19692;DHT22;42748;50.016;19.890;2022-11-22T11:10:46;7.50;99.90
19692;DHT22;42748;50.016;19.890;2022-11-22T11:13:23;7.40;99.90
19692;DHT22;42748;50.016;19.890;2022-11-22T11:15:57;7.50;99.90
19692;DHT22;42748;50.016;19.890;2022-11-22T11:18:55;7.30;99.90
19692;DHT22;42748;50.016;19.890;2022-11-22T11:21:24;7.00;99.90
19692;DHT22;42748;50.016;19.890;2022-11-22T11:23:52;7.10;99.90
19692;DHT22;42748;50.016;19.890;2022-11-22T11:28:49;6.70;99.90
19692;DHT22;42748;50.016;19.890;2022-11-22T11:31:16;6.60;99.90
19692;DHT22;42748;50.016;19.890;2022-11-22T11:33:47;6.60;99.90
19692;DHT22;42748;50.016;19.890;2022-11-22T11:36:18;6.60;99.90
19692;DHT22;42748;50.016;19.890;2022-11-22T11:39:03;6.60;99.90
19692;DHT22;42748;50.016;19.890;2022-11-22T11:41:32;6.80;99.90
19692;DHT22;42748;50.016;19.890;2022-11-22T11:44:34;6.70;99.90
19692;DHT22;42748;50.016;19.890;2022-11-22T11:47:05;6.60;99.90
19692;DHT22;42748;50.016;19.890;2022-11-22T11:49:33;6.70;99.90
19692;DHT22;42748;50.016;19.890;2022-11-22T11:52:01;6.60;99.90
19692;DHT22;42748;50.016;19.890;2022-11-22T11:54:42;6.60;99.90
19692;DHT22;42748;50.016;19.890;2022-11-22T11:57:14;6.60;99.90
19692;DHT22;42748;50.016;19.890;2022-11-22T11:59:47;6.60;99.90
19692;DHT22;42748;50.016;19.890;2022-11-22T12:07:44;6.60;99.90
19692;DHT22;42748;50.016;19.890;2022-11-22T12:15:53;6.40;99.90
19692;DHT22;42748;50.016;19.890;2022-11-22T12:19:07;6.30;99.90
19692;DHT22;42748;50.016;19.890;2022-11-22T12:24:23;6.30;99.90
19692;DHT22;42748;50.016;19.890;2022-11-22T12:27:12;6.40;99.90
19692;DHT22;42748;50.016;19.890;2022-11-22T12:29:41;6.40;99.90
19692;DHT22;42748;50.016;19.890;2022-11-22T12:32:39;6.40;99.90
19692;DHT22;42748;50.016;19.890;2022-11-22T12:35:14;6.40;99.90
19692;DHT22;42748;50.016;19.890;2022-11-22T12:40:20;6.50;99.90
19692;DHT22;42748;50.016;19.890;2022-11-22T12:42:53;6.60;99.90
19692;DHT22;42748;50.016;19.890;2022-11-22T12:45:23;6.50;99.90
19692;DHT22;42748;50.016;19.890;2022-11-22T12:47:54;6.60;99.90
19692;DHT22;42748;50.016;19.890;2022-11-22T12:50:35;6.60;99.90
19692;DHT22;42748;50.016;19.890;2022-11-22T12:53:12;6.60;99.90
19692;DHT22;42748;50.016;19.890;2022-11-22T13:09:17;6.70;99.90
19692;DHT22;42748;50.016;19.890;2022-11-22T13:11:49;6.80;99.90
19692;DHT22;42748;50.016;19.890;2022-11-22T13:14:22;6.90;99.90
19692;DHT22;42748;50.016;19.890;2022-11-22T13:16:53;6.90;99.90
19692;DHT22;42748;50.016;19.890;2022-11-22T13:19:22;6.80;99.90
19692;DHT22;42748;50.016;19.890;2022-11-22T13:22:18;6.80;99.90
19692;DHT22;42748;50.016;19.890;2022-11-22T13:25:25;6.80;99.90
19692;DHT22;42748;50.016;19.890;2022-11-22T13:27:56;6.80;99.90
19692;DHT22;42748;50.016;19.890;2022-11-22T13:30:28;6.80;99.90
19692;DHT22;42748;50.016;19.890;2022-11-22T13:32:57;6.90;99.90
19692;DHT22;42748;50.016;19.890;2022-11-22T13:37:54;6.80;99.90
19692;DHT22;42748;50.016;19.890;2022-11-22T13:40:34;6.70;99.90
19692;DHT22;42748;50.016;19.890;2022-11-22T13:45:52;6.70;99.90
19692;DHT22;42748;50.016;19.890;2022-11-22T13:51:06;6.50;99.90
19692;DHT22;42748;50.016;19.890;2022-11-22T13:53:36;6.40;99.90
19692;DHT22;42748;50.016;19.890;2022-11-22T14:15:19;6.00;99.90
19692;DHT22;42748;50.016;19.890;2022-11-22T14:21:08;5.90;99.90
19692;DHT22;42748;50.016;19.890;2022-11-22T14:30:00;5.60;99.90
19692;DHT22;42748;50.016;19.890;2022-11-22T14:32:13;5.60;99.90
19692;DHT22;42748;50.016;19.890;2022-11-22T14:35:16;5.50;99.90
19692;DHT22;42748;50.016;19.890;2022-11-22T14:37:56;5.40;99.90
19692;DHT22;42748;50.016;19.890;2022-11-22T14:40:31;5.40;99.90
19692;DHT22;42748;50.016;19.890;2022-11-22T14:43:02;5.30;99.90
19692;DHT22;42748;50.016;19.890;2022-11-22T14:48:31;5.30;99.90
19692;DHT22;42748;50.016;19.890;2022-11-22T14:53:42;5.20;99.90
19692;DHT22;42748;50.016;19.890;2022-11-22T14:56:16;5.20;99.90
19692;DHT22;42748;50.016;19.890;2022-11-22T15:07:41;5.00;99.90
19692;DHT22;42748;50.016;19.890;2022-11-22T15:14:00;4.90;99.90
19692;DHT22;42748;50.016;19.890;2022-11-22T15:16:32;4.80;99.90
19692;DHT22;42748;50.016;19.890;2022-11-22T15:19:36;4.70;99.90
19692;DHT22;42748;50.016;19.890;2022-11-22T15:22:28;4.60;99.90
19692;DHT22;42748;50.016;19.890;2022-11-22T15:25:17;4.50;99.90
19692;DHT22;42748;50.016;19.890;2022-11-22T15:28:15;4.50;99.90
19692;DHT22;42748;50.016;19.890;2022-11-22T15:31:10;4.40;99.90
19692;DHT22;42748;50.016;19.890;2022-11-22T15:33:59;4.40;99.90
19692;DHT22;42748;50.016;19.890;2022-11-22T15:37:07;4.30;99.90
19692;DHT22;42748;50.016;19.890;2022-11-22T15:39:56;4.20;99.90
19692;DHT22;42748;50.016;19.890;2022-11-22T15:42:57;4.20;99.90
19692;DHT22;42748;50.016;19.890;2022-11-22T15:45:45;4.20;99.90
19692;DHT22;42748;50.016;19.890;2022-11-22T15:48:44;4.20;99.90
19692;DHT22;42748;50.016;19.890;2022-11-22T15:54:38;4.10;99.90
19692;DHT22;42748;50.016;19.890;2022-11-22T15:57:30;4.10;99.90
19692;DHT22;42748;50.016;19.890;2022-11-22T15:59:59;4.00;99.90
19692;DHT22;42748;50.016;19.890;2022-11-22T16:02:28;3.90;99.90
19692;DHT22;42748;50.016;19.890;2022-11-22T16:05:06;3.90;99.90
19692;DHT22;42748;50.016;19.890;2022-11-22T16:07:54;3.90;99.90
19692;DHT22;42748;50.016;19.890;2022-11-22T16:10:33;3.80;99.90
19692;DHT22;42748;50.016;19.890;2022-11-22T16:18:39;3.80;99.90
19692;DHT22;42748;50.016;19.890;2022-11-22T16:23:40;3.80;99.90
19692;DHT22;42748;50.016;19.890;2022-11-22T16:28:52;3.80;99.90
19692;DHT22;42748;50.016;19.890;2022-11-22T16:33:50;3.80;99.90
19692;DHT22;42748;50.016;19.890;2022-11-22T16:36:19;3.80;99.90
19692;DHT22;42748;50.016;19.890;2022-11-22T16:38:46;3.80;99.90
19692;DHT22;42748;50.016;19.890;2022-11-22T16:41:25;3.80;99.90
19692;DHT22;42748;50.016;19.890;2022-11-22T16:44:01;3.80;99.90
19692;DHT22;42748;50.016;19.890;2022-11-22T16:46:28;3.80;99.90
19692;DHT22;42748;50.016;19.890;2022-11-22T16:48:55;3.80;99.90
19692;DHT22;42748;50.016;19.890;2022-11-22T16:51:27;3.80;99.90
19692;DHT22;42748;50.016;19.890;2022-11-22T16:53:59;3.80;99.90
19692;DHT22;42748;50.016;19.890;2022-11-22T16:56:31;3.90;99.90
19692;DHT22;42748;50.016;19.890;2022-11-22T16:58:58;3.90;99.90
19692;DHT22;42748;50.016;19.890;2022-11-22T17:01:28;3.90;99.90
19692;DHT22;42748;50.016;19.890;2022-11-22T17:04:00;3.90;99.90
19692;DHT22;42748;50.016;19.890;2022-11-22T17:06:29;3.90;99.90
19692;DHT22;42748;50.016;19.890;2022-11-22T17:08:58;4.00;99.90
19692;DHT22;42748;50.016;19.890;2022-11-22T17:11:29;4.00;99.90
19692;DHT22;42748;50.016;19.890;2022-11-22T17:13:57;3.90;99.90
19692;DHT22;42748;50.016;19.890;2022-11-22T17:16:24;3.90;99.90
19692;DHT22;42748;50.016;19.890;2022-11-22T17:18:51;3.80;99.90
19692;DHT22;42748;50.016;19.890;2022-11-22T17:21:26;3.70;99.90
19692;DHT22;42748;50.016;19.890;2022-11-22T17:24:12;3.70;99.90
19692;DHT22;42748;50.016;19.890;2022-11-22T17:26:41;3.70;99.90
19692;DHT22;42748;50.016;19.890;2022-11-22T17:29:08;3.60;99.90
19692;DHT22;42748;50.016;19.890;2022-11-22T17:31:55;3.60;99.90
19692;DHT22;42748;50.016;19.890;2022-11-22T17:34:22;3.60;99.90
19692;DHT22;42748;50.016;19.890;2022-11-22T17:36:49;3.50;99.90
19692;DHT22;42748;50.016;19.890;2022-11-22T17:39:16;3.50;99.90
19692;DHT22;42748;50.016;19.890;2022-11-22T17:41:47;3.40;99.90
19692;DHT22;42748;50.016;19.890;2022-11-22T17:44:15;3.40;99.90
19692;DHT22;42748;50.016;19.890;2022-11-22T17:46:43;3.40;99.90
19692;DHT22;42748;50.016;19.890;2022-11-22T17:49:10;3.30;99.90
19692;DHT22;42748;50.016;19.890;2022-11-22T17:51:41;3.30;99.90
19692;DHT22;42748;50.016;19.890;2022-11-22T17:54:08;3.20;99.90
19692;DHT22;42748;50.016;19.890;2022-11-22T17:56:35;3.20;99.90
19692;DHT22;42748;50.016;19.890;2022-11-22T17:59:03;3.10;99.90
19692;DHT22;42748;50.016;19.890;2022-11-22T18:01:30;3.10;99.90
19692;DHT22;42748;50.016;19.890;2022-11-22T18:03:57;3.00;99.90
19692;DHT22;42748;50.016;19.890;2022-11-22T18:06:24;3.00;99.90
19692;DHT22;42748;50.016;19.890;2022-11-22T18:08:52;3.00;99.90
19692;DHT22;42748;50.016;19.890;2022-11-22T18:11:19;2.90;99.90
19692;DHT22;42748;50.016;19.890;2022-11-22T18:13:46;2.90;99.90
19692;DHT22;42748;50.016;19.890;2022-11-22T18:16:14;2.90;99.90
19692;DHT22;42748;50.016;19.890;2022-11-22T18:18:44;2.90;99.90
19692;DHT22;42748;50.016;19.890;2022-11-22T18:21:28;2.80;99.90
19692;DHT22;42748;50.016;19.890;2022-11-22T18:23:57;2.80;99.90